createdAt,value
2018-02-15T00:00:35.487Z,16.90
2018-02-15T00:01:35.469Z,18.20
2018-02-15T00:02:35.440Z,16.20
2018-02-15T00:03:35.416Z,18.30
2018-02-15T00:04:35.400Z,18.30
2018-02-15T00:05:35.369Z,15.20
2018-02-15T00:06:35.348Z,17.30
2018-02-15T00:07:35.319Z,19.20
2018-02-15T00:08:35.300Z,17.70
2018-02-15T00:09:35.286Z,16.50
2018-02-15T00:10:35.250Z,18.10
2018-02-15T00:11:35.224Z,18.10
2018-02-15T00:12:35.208Z,16.70
2018-02-15T00:13:35.182Z,17.40
2018-02-15T00:14:35.166Z,18.10
2018-02-15T00:15:35.130Z,18.00
2018-02-15T00:16:35.107Z,17.00
2018-02-15T00:17:35.086Z,18.00
2018-02-15T00:18:35.065Z,17.20
2018-02-15T00:19:35.037Z,17.50
2018-02-15T00:20:35.015Z,16.50
2018-02-15T00:21:34.998Z,20.10
2018-02-15T00:22:34.969Z,19.60
2018-02-15T00:23:34.947Z,19.00
2018-02-15T00:24:34.923Z,18.00
2018-02-15T00:25:34.910Z,16.00
2018-02-15T00:26:34.878Z,16.10
2018-02-15T00:27:34.861Z,17.70
2018-02-15T00:28:34.832Z,19.50
2018-02-15T00:29:34.858Z,18.50
2018-02-15T00:30:34.783Z,18.70
2018-02-15T00:31:34.768Z,18.90
2018-02-15T00:32:34.737Z,15.80
2018-02-15T00:33:34.768Z,17.00
2018-02-15T00:34:34.687Z,18.40
2018-02-15T00:35:34.663Z,18.20
2018-02-15T00:36:34.639Z,17.30
2018-02-15T00:37:34.618Z,18.20
2018-02-15T00:38:34.595Z,17.40
2018-02-15T00:39:34.625Z,20.80
2018-02-15T00:40:34.547Z,19.00
2018-02-15T00:41:34.527Z,17.60
2018-02-15T00:42:34.505Z,18.60
2018-02-15T00:43:34.480Z,18.00
2018-02-15T00:44:34.455Z,18.80
2018-02-15T00:45:34.435Z,16.60
2018-02-15T00:46:34.407Z,20.40
2018-02-15T00:47:34.388Z,18.00
2018-02-15T00:48:34.361Z,20.40
2018-02-15T00:49:34.337Z,18.50
2018-02-15T00:50:34.312Z,16.60
2018-02-15T00:51:34.288Z,17.80
2018-02-15T00:52:34.267Z,19.40
2018-02-15T00:53:34.243Z,17.60
2018-02-15T00:54:34.217Z,19.70
2018-02-15T00:55:34.206Z,21.70
2018-02-15T00:56:34.172Z,18.60
2018-02-15T00:57:34.153Z,18.80
2018-02-15T00:58:34.126Z,19.10
2018-02-15T00:59:34.102Z,17.70
2018-02-15T01:00:34.079Z,16.50
2018-02-15T01:01:34.054Z,18.30
2018-02-15T01:02:34.032Z,18.50
2018-02-15T01:03:34.011Z,17.30
2018-02-15T01:04:33.983Z,18.60
2018-02-15T01:05:33.968Z,19.30
2018-02-15T01:06:33.936Z,18.10
2018-02-15T01:07:33.917Z,19.00
2018-02-15T01:08:33.892Z,18.40
2018-02-15T01:09:33.867Z,17.20
2018-02-15T01:10:33.847Z,17.50
2018-02-15T01:11:33.826Z,14.90
2018-02-15T01:12:33.797Z,18.10
2018-02-15T01:13:33.778Z,19.90
2018-02-15T01:14:33.799Z,16.40
2018-02-15T01:15:33.731Z,18.90
2018-02-15T01:16:33.704Z,16.90
2018-02-15T01:17:33.684Z,18.00
2018-02-15T01:18:33.659Z,16.80
2018-02-15T01:19:33.638Z,15.60
2018-02-15T01:20:33.622Z,18.40
2018-02-15T01:21:33.600Z,19.50
2018-02-15T01:22:33.570Z,19.00
2018-02-15T01:23:33.545Z,17.90
2018-02-15T01:24:33.519Z,15.80
2018-02-15T01:25:33.500Z,17.20
2018-02-15T01:26:33.471Z,16.70
2018-02-15T01:27:33.445Z,14.50
2018-02-15T01:28:33.428Z,17.20
2018-02-15T01:29:33.409Z,19.40
2018-02-15T01:30:33.379Z,16.20
2018-02-15T01:31:33.359Z,15.50
2018-02-15T01:32:33.336Z,16.50
2018-02-15T01:33:33.310Z,16.20
2018-02-15T01:34:33.328Z,17.90
2018-02-15T01:35:33.263Z,15.80
2018-02-15T01:36:33.239Z,15.40
2018-02-15T01:37:33.218Z,17.10
2018-02-15T01:38:33.195Z,16.60
2018-02-15T01:39:33.169Z,15.40
2018-02-15T01:40:33.147Z,15.00
2018-02-15T01:41:33.129Z,15.00
2018-02-15T01:42:33.097Z,15.10
2018-02-15T01:43:33.080Z,16.90
2018-02-15T01:44:33.059Z,14.20
2018-02-15T01:45:33.028Z,16.00
2018-02-15T01:46:33.005Z,15.40
2018-02-15T01:47:32.984Z,17.50
2018-02-15T01:48:32.958Z,16.50
2018-02-15T01:49:32.938Z,13.70
2018-02-15T01:50:32.919Z,15.60
2018-02-15T01:51:32.888Z,14.40
2018-02-15T01:52:32.867Z,14.50
2018-02-15T01:53:32.845Z,15.10
2018-02-15T01:54:32.821Z,15.10
2018-02-15T01:55:32.797Z,15.10
2018-02-15T01:56:32.778Z,16.30
2018-02-15T01:57:32.751Z,14.60
2018-02-15T01:58:32.725Z,15.60
2018-02-15T01:59:32.720Z,16.90
2018-02-15T02:00:32.679Z,14.50
2018-02-15T02:01:32.656Z,15.40
2018-02-15T02:02:32.637Z,15.00
2018-02-15T02:03:32.618Z,16.80
2018-02-15T02:04:32.587Z,16.80
2018-02-15T02:05:32.567Z,13.40
2018-02-15T02:06:32.543Z,13.90
2018-02-15T02:07:32.522Z,18.00
2018-02-15T02:08:32.500Z,15.00
2018-02-15T02:09:32.478Z,15.80
2018-02-15T02:10:32.447Z,15.30
2018-02-15T02:11:32.426Z,15.00
2018-02-15T02:12:32.402Z,15.10
2018-02-15T02:13:32.391Z,16.40
2018-02-15T02:14:32.358Z,14.80
2018-02-15T02:15:32.334Z,15.10
2018-02-15T02:16:32.311Z,15.40
2018-02-15T02:17:32.288Z,14.70
2018-02-15T02:18:32.268Z,14.60
2018-02-15T02:19:32.249Z,15.40
2018-02-15T02:20:32.218Z,14.30
2018-02-15T02:21:32.207Z,17.30
2018-02-15T02:22:32.171Z,16.40
2018-02-15T02:23:32.152Z,14.30
2018-02-15T02:24:32.127Z,17.50
2018-02-15T02:25:32.107Z,15.60
2018-02-15T02:26:32.082Z,16.00
2018-02-15T02:27:32.056Z,15.00
2018-02-15T02:28:32.044Z,15.40
2018-02-15T02:29:32.018Z,15.60
2018-02-15T02:30:32.004Z,15.60
2018-02-15T02:31:31.967Z,16.40
2018-02-15T02:32:31.943Z,16.40
2018-02-15T02:33:31.920Z,15.40
2018-02-15T02:34:31.898Z,14.40
2018-02-15T02:35:31.875Z,16.10
2018-02-15T02:36:31.849Z,13.90
2018-02-15T02:37:31.839Z,15.60
2018-02-15T02:38:31.851Z,14.90
2018-02-15T02:39:31.789Z,14.70
2018-02-15T02:40:31.761Z,14.40
2018-02-15T02:41:31.737Z,13.50
2018-02-15T02:42:31.812Z,15.60
2018-02-15T02:43:31.694Z,16.20
2018-02-15T02:44:31.804Z,14.20
2018-02-15T02:45:31.646Z,15.50
2018-02-15T02:46:31.778Z,15.10
2018-02-15T02:47:31.602Z,14.20
2018-02-15T02:48:31.688Z,14.40
2018-02-15T02:49:31.553Z,15.00
2018-02-15T02:50:31.533Z,13.80
2018-02-15T02:51:31.511Z,15.00
2018-02-15T02:52:31.490Z,15.90
2018-02-15T02:53:31.463Z,15.50
2018-02-15T02:54:31.448Z,13.90
2018-02-15T02:55:31.418Z,17.00
2018-02-15T02:56:31.397Z,14.70
2018-02-15T02:57:31.368Z,16.60
2018-02-15T02:58:31.357Z,14.30
2018-02-15T02:59:31.329Z,15.40
2018-02-15T03:00:31.305Z,15.80
2018-02-15T03:01:31.282Z,14.30
2018-02-15T03:02:31.258Z,14.40
2018-02-15T03:03:31.237Z,15.30
2018-02-15T03:04:31.215Z,17.00
2018-02-15T03:05:31.188Z,13.80
2018-02-15T03:06:31.169Z,14.40
2018-02-15T03:07:31.142Z,14.60
2018-02-15T03:08:31.145Z,15.50
2018-02-15T03:09:31.097Z,15.10
2018-02-15T03:10:31.081Z,15.00
2018-02-15T03:11:31.049Z,15.20
2018-02-15T03:12:31.029Z,17.20
2018-02-15T03:13:31.007Z,15.10
2018-02-15T03:14:30.979Z,14.70
2018-02-15T03:15:30.958Z,14.20
2018-02-15T03:16:30.932Z,14.80
2018-02-15T03:17:30.910Z,15.80
2018-02-15T03:18:30.890Z,13.70
2018-02-15T03:19:30.867Z,14.40
2018-02-15T03:20:30.839Z,16.20
2018-02-15T03:21:30.817Z,16.00
2018-02-15T03:22:30.797Z,15.80
2018-02-15T03:23:30.777Z,16.20
2018-02-15T03:24:30.752Z,15.60
2018-02-15T03:25:30.727Z,15.20
2018-02-15T03:26:30.709Z,15.10
2018-02-15T03:27:30.688Z,15.80
2018-02-15T03:28:30.659Z,14.60
2018-02-15T03:29:30.637Z,15.40
2018-02-15T03:30:30.620Z,15.30
2018-02-15T03:31:30.598Z,15.90
2018-02-15T03:32:30.571Z,13.90
2018-02-15T03:33:30.550Z,15.90
2018-02-15T03:34:30.522Z,15.70
2018-02-15T03:35:30.501Z,16.60
2018-02-15T03:36:30.477Z,14.90
2018-02-15T03:37:30.467Z,15.00
2018-02-15T03:38:30.427Z,13.70
2018-02-15T03:39:30.409Z,17.60
2018-02-15T03:40:30.387Z,16.40
2018-02-15T03:41:30.359Z,15.10
2018-02-15T03:42:30.336Z,15.50
2018-02-15T03:43:30.324Z,15.60
2018-02-15T03:44:30.292Z,15.40
2018-02-15T03:45:30.267Z,14.30
2018-02-15T03:46:30.248Z,15.00
2018-02-15T03:47:30.228Z,16.10
2018-02-15T03:48:30.208Z,16.30
2018-02-15T03:49:30.177Z,14.20
2018-02-15T03:50:30.154Z,14.10
2018-02-15T03:51:30.130Z,14.20
2018-02-15T03:52:30.109Z,14.70
2018-02-15T03:53:30.089Z,15.20
2018-02-15T03:54:30.064Z,14.70
2018-02-15T03:55:30.048Z,14.50
2018-02-15T03:56:30.019Z,17.70
2018-02-15T03:57:29.997Z,14.30
2018-02-15T03:58:29.973Z,14.90
2018-02-15T03:59:29.949Z,16.00
2018-02-15T04:00:29.928Z,14.20
2018-02-15T04:01:29.904Z,14.30
2018-02-15T04:02:29.888Z,13.80
2018-02-15T04:03:29.864Z,13.10
2018-02-15T04:04:29.836Z,12.60
2018-02-15T04:05:29.816Z,14.40
2018-02-15T04:06:29.798Z,14.10
2018-02-15T04:07:29.764Z,14.00
2018-02-15T04:08:29.743Z,14.10
2018-02-15T04:09:29.727Z,14.40
2018-02-15T04:10:29.694Z,16.60
2018-02-15T04:11:29.676Z,14.00
2018-02-15T04:12:29.650Z,15.10
2018-02-15T04:13:29.629Z,13.30
2018-02-15T04:14:29.606Z,17.00
2018-02-15T04:15:29.584Z,13.20
2018-02-15T04:16:29.563Z,13.20
2018-02-15T04:17:29.537Z,13.70
2018-02-15T04:18:29.512Z,13.50
2018-02-15T04:19:29.489Z,14.40
2018-02-15T04:20:29.467Z,13.00
2018-02-15T04:21:29.445Z,13.70
2018-02-15T04:22:29.431Z,15.60
2018-02-15T04:23:29.397Z,13.20
2018-02-15T04:24:29.377Z,13.70
2018-02-15T04:25:29.352Z,13.20
2018-02-15T04:26:29.332Z,13.10
2018-02-15T04:27:29.305Z,13.20
2018-02-15T04:28:29.283Z,15.40
2018-02-15T04:29:29.261Z,14.10
2018-02-15T04:30:29.236Z,13.30
2018-02-15T04:31:29.218Z,15.40
2018-02-15T04:32:29.200Z,13.40
2018-02-15T04:33:29.170Z,14.30
2018-02-15T04:34:29.144Z,13.90
2018-02-15T04:35:29.124Z,14.70
2018-02-15T04:36:29.101Z,15.00
2018-02-15T04:37:29.078Z,15.50
2018-02-15T04:38:29.054Z,13.90
2018-02-15T04:39:29.031Z,14.00
2018-02-15T04:40:29.018Z,14.20
2018-02-15T04:41:28.987Z,13.30
2018-02-15T04:42:28.962Z,14.10
2018-02-15T04:43:28.944Z,15.10
2018-02-15T04:44:28.917Z,16.70
2018-02-15T04:45:28.902Z,14.40
2018-02-15T04:46:28.873Z,14.70
2018-02-15T04:47:28.859Z,14.80
2018-02-15T04:48:28.827Z,14.40
2018-02-15T04:49:28.803Z,13.60
2018-02-15T04:50:28.780Z,14.30
2018-02-15T04:51:28.758Z,13.00
2018-02-15T04:52:28.747Z,18.80
2018-02-15T04:53:28.716Z,15.70
2018-02-15T04:54:28.689Z,16.30
2018-02-15T04:55:28.669Z,12.80
2018-02-15T04:56:28.649Z,14.40
2018-02-15T04:57:28.625Z,10.90
2018-02-15T04:58:28.604Z,12.50
2018-02-15T04:59:28.572Z,13.70
2018-02-15T05:00:28.547Z,14.70
2018-02-15T05:01:28.532Z,14.90
2018-02-15T05:02:28.502Z,15.30
2018-02-15T05:03:28.484Z,17.20
2018-02-15T05:04:28.455Z,15.10
2018-02-15T05:05:28.436Z,16.70
2018-02-15T05:06:28.411Z,16.00
2018-02-15T05:07:28.386Z,18.10
2018-02-15T05:08:28.365Z,17.00
2018-02-15T05:09:28.344Z,14.70
2018-02-15T05:10:28.329Z,17.20
2018-02-15T05:11:28.303Z,17.50
2018-02-15T05:12:28.277Z,20.50
2018-02-15T05:13:28.259Z,17.40
2018-02-15T05:14:28.225Z,17.40
2018-02-15T05:15:28.203Z,19.10
2018-02-15T05:16:28.179Z,19.00
2018-02-15T05:17:28.160Z,23.20
2018-02-15T05:18:28.136Z,20.40
2018-02-15T05:19:28.105Z,20.50
2018-02-15T05:20:28.086Z,20.30
2018-02-15T05:21:28.058Z,22.10
2018-02-15T05:22:28.036Z,18.70
2018-02-15T05:23:28.018Z,20.40
2018-02-15T05:24:27.987Z,22.00
2018-02-15T05:25:27.969Z,19.10
2018-02-15T05:26:27.939Z,21.40
2018-02-15T05:27:27.918Z,22.00
2018-02-15T05:28:27.898Z,19.10
2018-02-15T05:29:27.877Z,23.20
2018-02-15T05:30:27.847Z,20.40
2018-02-15T05:31:27.828Z,24.20
2018-02-15T05:32:27.807Z,23.70
2018-02-15T05:33:27.778Z,21.30
2018-02-15T05:34:27.754Z,24.00
2018-02-15T05:35:27.738Z,20.40
2018-02-15T05:36:27.705Z,21.60
2018-02-15T05:37:27.700Z,20.70
2018-02-15T05:38:27.658Z,19.20
2018-02-15T05:39:27.640Z,23.30
2018-02-15T05:40:27.619Z,22.50
2018-02-15T05:41:27.598Z,20.20
2018-02-15T05:42:27.567Z,21.70
2018-02-15T05:43:27.543Z,22.70
2018-02-15T05:44:27.519Z,19.60
2018-02-15T05:45:27.507Z,23.80
2018-02-15T05:46:27.470Z,25.70
2018-02-15T05:47:27.445Z,23.70
2018-02-15T05:48:27.431Z,24.00
2018-02-15T05:49:27.396Z,26.30
2018-02-15T05:50:27.373Z,25.20
2018-02-15T05:51:27.350Z,27.30
2018-02-15T05:52:27.329Z,23.50
2018-02-15T05:53:27.308Z,27.40
2018-02-15T05:54:27.277Z,27.90
2018-02-15T05:55:27.258Z,19.40
2018-02-15T05:56:27.228Z,23.50
2018-02-15T05:57:27.207Z,21.80
2018-02-15T05:58:27.182Z,25.60
2018-02-15T05:59:27.156Z,23.10
2018-02-15T06:00:27.137Z,26.70
2018-02-15T06:01:27.110Z,27.20
2018-02-15T06:02:27.086Z,27.20
2018-02-15T06:03:27.068Z,21.80
2018-02-15T06:04:27.038Z,22.30
2018-02-15T06:05:27.012Z,25.80
2018-02-15T06:06:26.992Z,24.10
2018-02-15T06:07:26.963Z,23.50
2018-02-15T06:08:26.940Z,22.70
2018-02-15T06:09:26.918Z,24.80
2018-02-15T06:10:26.898Z,23.20
2018-02-15T06:11:26.880Z,26.90
2018-02-15T06:12:26.848Z,25.50
2018-02-15T06:13:26.829Z,27.00
2018-02-15T06:14:26.800Z,28.00
2018-02-15T06:15:26.771Z,28.50
2018-02-15T06:16:26.748Z,27.30
2018-02-15T06:17:26.725Z,26.30
2018-02-15T06:18:26.708Z,27.60
2018-02-15T06:19:26.676Z,28.70
2018-02-15T06:20:26.655Z,25.80
2018-02-15T06:21:26.628Z,25.90
2018-02-15T06:22:26.657Z,23.90
2018-02-15T06:23:26.581Z,25.50
2018-02-15T06:24:26.558Z,24.20
2018-02-15T06:25:26.539Z,20.30
2018-02-15T06:26:26.562Z,23.10
2018-02-15T06:27:26.488Z,21.00
2018-02-15T06:28:26.463Z,27.10
2018-02-15T06:29:26.435Z,28.60
2018-02-15T06:30:26.444Z,23.10
2018-02-15T06:31:26.391Z,24.60
2018-02-15T06:32:26.466Z,24.20
2018-02-15T06:33:26.338Z,21.90
2018-02-15T06:34:26.396Z,24.10
2018-02-15T06:35:26.294Z,26.10
2018-02-15T06:36:26.368Z,27.30
2018-02-15T06:37:26.249Z,26.10
2018-02-15T06:38:26.224Z,28.70
2018-02-15T06:39:26.199Z,23.20
2018-02-15T06:40:26.177Z,27.10
2018-02-15T06:41:26.149Z,28.70
2018-02-15T06:42:26.217Z,24.70
2018-02-15T06:43:26.102Z,23.10
2018-02-15T06:44:26.075Z,21.30
2018-02-15T06:45:26.052Z,28.90
2018-02-15T06:46:26.029Z,26.50
2018-02-15T06:47:26.002Z,27.30
2018-02-15T06:48:25.978Z,28.70
2018-02-15T06:49:25.961Z,30.70
2018-02-15T06:50:25.927Z,30.30
2018-02-15T06:51:25.910Z,27.80
2018-02-15T06:52:25.879Z,29.70
2018-02-15T06:53:25.857Z,27.50
2018-02-15T06:54:25.835Z,26.00
2018-02-15T06:55:25.810Z,28.80
2018-02-15T06:56:25.788Z,27.20
2018-02-15T06:57:25.760Z,29.40
2018-02-15T06:58:25.744Z,24.80
2018-02-15T06:59:25.718Z,26.40
2018-02-15T07:00:25.688Z,26.70
2018-02-15T07:01:25.665Z,27.30
2018-02-15T07:02:25.640Z,27.60
2018-02-15T07:03:25.612Z,28.70
2018-02-15T07:04:25.589Z,27.20
2018-02-15T07:05:25.600Z,22.90
2018-02-15T07:06:25.550Z,23.20
2018-02-15T07:07:25.533Z,29.80
2018-02-15T07:08:25.494Z,21.30
2018-02-15T07:09:25.469Z,25.60
2018-02-15T07:10:25.457Z,22.20
2018-02-15T07:11:25.418Z,30.80
2018-02-15T07:12:25.394Z,30.70
2018-02-15T07:13:25.378Z,25.70
2018-02-15T07:14:25.348Z,31.40
2018-02-15T07:15:25.331Z,30.90
2018-02-15T07:16:25.298Z,30.80
2018-02-15T07:17:25.280Z,28.60
2018-02-15T07:18:25.254Z,30.70
2018-02-15T07:19:25.266Z,31.40
2018-02-15T07:20:25.202Z,31.70
2018-02-15T07:21:25.180Z,27.80
2018-02-15T07:22:25.151Z,29.10
2018-02-15T07:23:25.130Z,30.50
2018-02-15T07:24:25.107Z,28.90
2018-02-15T07:25:25.090Z,28.50
2018-02-15T07:26:25.063Z,26.70
2018-02-15T07:27:25.033Z,31.10
2018-02-15T07:28:25.008Z,29.90
2018-02-15T07:29:24.994Z,31.10
2018-02-15T07:30:24.970Z,28.70
2018-02-15T07:31:24.941Z,27.40
2018-02-15T07:32:24.919Z,30.80
2018-02-15T07:33:24.891Z,29.20
2018-02-15T07:34:24.873Z,31.20
2018-02-15T07:35:24.843Z,31.50
2018-02-15T07:36:24.825Z,30.90
2018-02-15T07:37:24.803Z,27.90
2018-02-15T07:38:24.768Z,31.40
2018-02-15T07:39:24.747Z,31.80
2018-02-15T07:40:24.724Z,31.50
2018-02-15T07:41:24.700Z,28.20
2018-02-15T07:42:24.677Z,27.10
2018-02-15T07:43:24.648Z,29.30
2018-02-15T07:44:24.628Z,29.00
2018-02-15T07:45:24.602Z,27.20
2018-02-15T07:46:24.574Z,31.70
2018-02-15T07:47:24.572Z,31.50
2018-02-15T07:48:24.528Z,29.30
2018-02-15T07:49:24.536Z,32.20
2018-02-15T07:50:24.488Z,27.10
2018-02-15T07:51:24.456Z,32.50
2018-02-15T07:52:24.438Z,29.60
2018-02-15T07:53:24.411Z,30.00
2018-02-15T07:54:24.383Z,23.20
2018-02-15T07:55:24.360Z,29.50
2018-02-15T07:56:24.337Z,30.40
2018-02-15T07:57:24.312Z,29.70
2018-02-15T07:58:24.289Z,31.80
2018-02-15T07:59:24.266Z,25.50
2018-02-15T08:00:24.242Z,34.20
2018-02-15T08:01:24.218Z,32.20
2018-02-15T08:02:24.194Z,29.20
2018-02-15T08:03:24.175Z,30.00
2018-02-15T08:04:24.148Z,29.40
2018-02-15T08:05:24.125Z,32.20
2018-02-15T08:06:24.102Z,30.30
2018-02-15T08:07:24.079Z,33.60
2018-02-15T08:08:24.056Z,28.40
2018-02-15T08:09:24.034Z,30.10
2018-02-15T08:10:24.007Z,32.40
2018-02-15T08:11:23.980Z,29.60
2018-02-15T08:12:23.962Z,27.70
2018-02-15T08:13:23.937Z,30.30
2018-02-15T08:14:23.910Z,24.30
2018-02-15T08:15:23.889Z,23.60
2018-02-15T08:16:23.862Z,40.50
2018-02-15T08:17:23.841Z,31.10
2018-02-15T08:18:23.811Z,29.80
2018-02-15T08:19:23.792Z,30.50
2018-02-15T08:20:23.817Z,31.70
2018-02-15T08:21:23.744Z,29.20
2018-02-15T08:22:23.716Z,28.50
2018-02-15T08:23:23.697Z,30.40
2018-02-15T08:24:23.666Z,28.30
2018-02-15T08:25:23.644Z,29.50
2018-02-15T08:26:23.618Z,26.90
2018-02-15T08:27:23.596Z,30.60
2018-02-15T08:28:23.570Z,29.80
2018-02-15T08:29:23.609Z,29.00
2018-02-15T08:30:23.530Z,29.30
2018-02-15T08:31:23.509Z,29.60
2018-02-15T08:32:23.478Z,30.70
2018-02-15T08:33:23.453Z,31.70
2018-02-15T08:34:23.430Z,30.00
2018-02-15T08:35:23.510Z,30.30
2018-02-15T08:36:23.382Z,27.20
2018-02-15T08:37:23.360Z,27.60
2018-02-15T08:38:23.334Z,29.90
2018-02-15T08:39:23.312Z,27.40
2018-02-15T08:40:23.286Z,27.30
2018-02-15T08:41:23.272Z,28.70
2018-02-15T08:42:23.239Z,31.40
2018-02-15T08:43:23.219Z,28.50
2018-02-15T08:44:23.190Z,29.30
2018-02-15T08:45:23.168Z,30.80
2018-02-15T08:46:23.146Z,28.40
2018-02-15T08:47:23.128Z,30.10
2018-02-15T08:48:23.106Z,30.60
2018-02-15T08:49:23.079Z,29.30
2018-02-15T08:50:23.055Z,27.80
2018-02-15T08:51:23.032Z,27.60
2018-02-15T08:52:23.001Z,29.60
2018-02-15T08:53:22.982Z,29.10
2018-02-15T08:54:22.958Z,27.70
2018-02-15T08:55:22.932Z,28.80
2018-02-15T08:56:22.913Z,29.10
2018-02-15T08:57:22.887Z,27.10
2018-02-15T08:58:22.860Z,28.10
2018-02-15T08:59:22.843Z,26.50
2018-02-15T09:00:22.816Z,31.80
2018-02-15T09:01:22.790Z,28.90
2018-02-15T09:02:22.764Z,28.80
2018-02-15T09:03:22.740Z,30.80
2018-02-15T09:04:22.720Z,28.50
2018-02-15T09:05:22.702Z,28.40
2018-02-15T09:06:22.670Z,29.90
2018-02-15T09:07:22.649Z,30.20
2018-02-15T09:08:22.624Z,27.50
2018-02-15T09:09:22.599Z,29.40
2018-02-15T09:10:22.580Z,27.30
2018-02-15T09:11:22.559Z,31.40
2018-02-15T09:12:22.531Z,29.10
2018-02-15T09:13:22.509Z,27.40
2018-02-15T09:14:22.486Z,25.80
2018-02-15T09:15:22.456Z,25.90
2018-02-15T09:16:22.434Z,27.30
2018-02-15T09:17:22.410Z,29.00
2018-02-15T09:18:22.389Z,29.00
2018-02-15T09:19:22.361Z,31.20
2018-02-15T09:20:22.337Z,30.00
2018-02-15T09:21:22.320Z,28.40
2018-02-15T09:22:22.289Z,27.90
2018-02-15T09:23:22.264Z,28.10
2018-02-15T09:24:22.247Z,27.90
2018-02-15T09:25:22.219Z,27.70
2018-02-15T09:26:22.211Z,28.30
2018-02-15T09:27:22.170Z,31.00
2018-02-15T09:28:22.147Z,28.80
2018-02-15T09:29:22.133Z,26.70
2018-02-15T09:30:22.100Z,31.40
2018-02-15T09:31:22.081Z,30.90
2018-02-15T09:32:22.051Z,29.20
2018-02-15T09:33:22.033Z,27.80
2018-02-15T09:34:22.060Z,28.50
2018-02-15T09:35:21.986Z,27.80
2018-02-15T09:36:21.957Z,29.20
2018-02-15T09:37:21.949Z,28.30
2018-02-15T09:38:21.963Z,21.50
2018-02-15T09:39:21.889Z,26.40
2018-02-15T09:40:21.916Z,30.00
2018-02-15T09:41:21.840Z,26.90
2018-02-15T09:42:21.869Z,24.10
2018-02-15T09:43:21.792Z,29.60
2018-02-15T09:44:21.769Z,26.40
2018-02-15T09:45:21.749Z,28.30
2018-02-15T09:46:21.737Z,26.40
2018-02-15T09:47:21.699Z,22.40
2018-02-15T09:48:21.706Z,28.10
2018-02-15T09:49:21.662Z,26.10
2018-02-15T09:50:21.634Z,29.10
2018-02-15T09:51:21.609Z,27.00
2018-02-15T09:52:21.590Z,24.10
2018-02-15T09:53:21.567Z,27.50
2018-02-15T09:54:21.640Z,24.90
2018-02-15T09:55:21.759Z,27.20
2018-02-15T09:56:21.495Z,28.40
2018-02-15T09:57:21.462Z,26.00
2018-02-15T09:58:21.515Z,27.50
2018-02-15T09:59:21.415Z,27.80
2018-02-15T10:00:21.498Z,26.70
2018-02-15T10:01:21.368Z,28.40
2018-02-15T10:02:21.448Z,29.90
2018-02-15T10:03:21.320Z,30.30
2018-02-15T10:04:21.384Z,28.60
2018-02-15T10:05:21.277Z,29.40
2018-02-15T10:06:21.259Z,31.10
2018-02-15T10:07:21.239Z,29.50
2018-02-15T10:08:21.208Z,31.00
2018-02-15T10:09:21.194Z,29.80
2018-02-15T10:10:21.164Z,27.60
2018-02-15T10:11:21.136Z,31.00
2018-02-15T10:12:21.116Z,27.90
2018-02-15T10:13:21.091Z,29.20
2018-02-15T10:14:21.068Z,29.20
2018-02-15T10:15:21.042Z,27.10
2018-02-15T10:16:21.022Z,29.50
2018-02-15T10:17:21.001Z,30.80
2018-02-15T10:18:20.972Z,27.10
2018-02-15T10:19:20.954Z,30.50
2018-02-15T10:20:20.929Z,29.60
2018-02-15T10:21:20.915Z,28.60
2018-02-15T10:22:20.881Z,28.50
2018-02-15T10:23:20.856Z,29.60
2018-02-15T10:24:20.837Z,31.00
2018-02-15T10:25:20.816Z,31.90
2018-02-15T10:26:20.798Z,28.10
2018-02-15T10:27:20.770Z,30.10
2018-02-15T10:28:20.749Z,29.40
2018-02-15T10:29:20.749Z,30.00
2018-02-15T10:30:20.702Z,28.90
2018-02-15T10:31:20.680Z,26.00
2018-02-15T10:32:20.649Z,26.50
2018-02-15T10:33:20.631Z,30.40
2018-02-15T10:34:20.610Z,27.30
2018-02-15T10:35:20.588Z,27.70
2018-02-15T10:36:20.560Z,28.30
2018-02-15T10:37:20.535Z,26.80
2018-02-15T10:38:20.515Z,28.00
2018-02-15T10:39:20.494Z,26.60
2018-02-15T10:40:20.468Z,25.90
2018-02-15T10:41:20.446Z,25.80
2018-02-15T10:42:20.433Z,24.90
2018-02-15T10:43:20.398Z,24.30
2018-02-15T10:44:20.378Z,24.70
2018-02-15T10:45:20.359Z,24.20
2018-02-15T10:46:20.330Z,24.10
2018-02-15T10:47:20.310Z,26.50
2018-02-15T10:48:20.286Z,26.50
2018-02-15T10:49:20.270Z,21.60
2018-02-15T10:50:20.240Z,23.30
2018-02-15T10:51:20.218Z,20.10
2018-02-15T10:52:20.208Z,22.80
2018-02-15T10:53:20.180Z,21.40
2018-02-15T10:54:20.151Z,21.70
2018-02-15T10:55:20.130Z,18.90
2018-02-15T10:56:20.107Z,20.50
2018-02-15T10:57:20.082Z,19.20
2018-02-15T10:58:20.061Z,18.50
2018-02-15T10:59:20.042Z,18.40
2018-02-15T11:00:20.018Z,19.50
2018-02-15T11:01:20.003Z,21.30
2018-02-15T11:02:19.976Z,18.70
2018-02-15T11:03:19.948Z,21.70
2018-02-15T11:04:19.930Z,20.50
2018-02-15T11:05:19.902Z,20.50
2018-02-15T11:06:19.879Z,17.30
2018-02-15T11:07:19.859Z,20.20
2018-02-15T11:08:19.836Z,19.70
2018-02-15T11:09:19.818Z,19.00
2018-02-15T11:10:19.792Z,17.60
2018-02-15T11:11:19.769Z,17.40
2018-02-15T11:12:19.749Z,19.20
2018-02-15T11:13:19.727Z,19.30
2018-02-15T11:14:19.707Z,16.20
2018-02-15T11:15:19.679Z,20.10
2018-02-15T11:16:19.658Z,20.00
2018-02-15T11:17:19.634Z,21.00
2018-02-15T11:18:19.614Z,22.70
2018-02-15T11:19:19.644Z,18.10
2018-02-15T11:20:19.576Z,19.80
2018-02-15T11:21:19.546Z,20.90
2018-02-15T11:22:19.524Z,19.00
2018-02-15T11:23:19.502Z,20.40
2018-02-15T11:24:19.480Z,20.40
2018-02-15T11:25:19.459Z,21.40
2018-02-15T11:26:19.437Z,19.80
2018-02-15T11:27:19.412Z,21.20
2018-02-15T11:28:19.390Z,18.20
2018-02-15T11:29:19.427Z,19.70
2018-02-15T11:30:19.349Z,20.50
2018-02-15T11:31:19.326Z,23.00
2018-02-15T11:32:19.303Z,21.50
2018-02-15T11:33:19.280Z,21.00
2018-02-15T11:34:19.254Z,21.30
2018-02-15T11:35:19.240Z,21.40
2018-02-15T11:36:19.216Z,19.40
2018-02-15T11:37:19.209Z,19.40
2018-02-15T11:38:19.170Z,21.80
2018-02-15T11:39:19.197Z,21.00
2018-02-15T11:40:19.130Z,21.60
2018-02-15T11:41:19.101Z,22.00
2018-02-15T11:42:19.078Z,19.20
2018-02-15T11:43:19.056Z,22.50
2018-02-15T11:44:19.043Z,21.00
2018-02-15T11:45:19.020Z,19.60
2018-02-15T11:46:18.995Z,22.20
2018-02-15T11:47:18.969Z,22.80
2018-02-15T11:48:18.950Z,22.50
2018-02-15T11:49:18.922Z,21.40
2018-02-15T11:50:18.949Z,23.10
2018-02-15T11:51:18.879Z,22.50
2018-02-15T11:52:18.866Z,22.60
2018-02-15T11:53:18.838Z,23.90
2018-02-15T11:54:18.815Z,23.40
2018-02-15T11:55:18.790Z,22.70
2018-02-15T11:56:18.769Z,24.80
2018-02-15T11:57:18.757Z,25.80
2018-02-15T11:58:18.727Z,27.30
2018-02-15T11:59:18.708Z,22.70
2018-02-15T12:00:18.681Z,24.80
2018-02-15T12:01:18.672Z,22.70
2018-02-15T12:02:18.643Z,25.30
2018-02-15T12:03:18.666Z,26.60
2018-02-15T12:04:18.597Z,24.20
2018-02-15T12:05:18.576Z,22.80
2018-02-15T12:06:18.551Z,25.30
2018-02-15T12:07:18.630Z,25.30
2018-02-15T12:08:18.537Z,25.00
2018-02-15T12:09:18.591Z,24.80
2018-02-15T12:10:18.460Z,25.50
2018-02-15T12:11:18.438Z,22.80
2018-02-15T12:12:18.418Z,25.60
2018-02-15T12:13:18.431Z,24.90
2018-02-15T12:14:18.378Z,25.80
2018-02-15T12:15:18.459Z,27.40
2018-02-15T12:16:18.327Z,27.30
2018-02-15T12:17:18.456Z,27.20
2018-02-15T12:18:18.283Z,28.10
2018-02-15T12:19:18.271Z,29.10
2018-02-15T12:20:18.239Z,26.90
2018-02-15T12:21:18.235Z,25.20
2018-02-15T12:22:18.203Z,25.70
2018-02-15T12:23:18.244Z,25.90
2018-02-15T12:24:18.156Z,26.00
2018-02-15T12:25:18.239Z,29.40
2018-02-15T12:26:18.119Z,26.00
2018-02-15T12:27:18.291Z,26.30
2018-02-15T12:28:18.080Z,30.30
2018-02-15T12:29:18.052Z,28.50
2018-02-15T12:30:18.029Z,29.60
2018-02-15T12:31:18.024Z,27.40
2018-02-15T12:32:17.990Z,29.30
2018-02-15T12:33:18.091Z,27.60
2018-02-15T12:34:17.937Z,27.10
2018-02-15T12:35:17.941Z,28.30
2018-02-15T12:36:17.891Z,32.20
2018-02-15T12:37:17.868Z,29.10
2018-02-15T12:38:17.886Z,29.60
2018-02-15T12:39:17.838Z,28.70
2018-02-15T12:40:17.809Z,30.50
2018-02-15T12:41:17.790Z,28.70
2018-02-15T12:42:17.759Z,29.70
2018-02-15T12:43:17.739Z,31.70
2018-02-15T12:44:17.721Z,25.90
2018-02-15T12:45:17.702Z,28.80
2018-02-15T12:46:17.678Z,29.60
2018-02-15T12:47:17.649Z,30.10
2018-02-15T12:48:17.633Z,26.60
2018-02-15T12:49:17.609Z,29.40
2018-02-15T12:50:17.591Z,29.40
2018-02-15T12:51:17.571Z,27.60
2018-02-15T12:52:17.550Z,28.50